CheckWX is a tool to help pilots better visualize weather data.  It is not intended as a substitute for an official pre-flight weather briefing.

21:13:26 UTC

KEYW METAR
Key West International Airport
Key West, Florida, USA
Current

20 mins ago

KEYW 182053Z 10007KT 10SM CLR 28/24 A3007 RMK AO2 SLP183 T02830239 56010
Observed
Feb-18 @ 20:53 UTC
Wind
  • 100° at 7 KTS
Visibility
10 SM
Flight Rules
VFR
Cloud Levels
  • Clear skies
Temperature
28°C / 82°F
Dewpoint
24°C / 75°F
Humidity
79%
Altimeter
30.07" Hg
Pressure
1018.3 hPa
Previous

1 hour ago

KEYW 181953Z 13008KT 10SM FEW030 28/24 A3008 RMK AO2 SLP184 T02830239
Observed
Feb-18 @ 19:53 UTC
Wind
  • 130° at 8 KTS
Visibility
10 SM
Flight Rules
VFR
Cloud Levels
  • Few at 3,000' AGL
Temperature
28°C / 82°F
Dewpoint
24°C / 75°F
Humidity
79%
Altimeter
30.08" Hg
Pressure
1018.4 hPa
Previous

2 hours ago

KEYW 181853Z 13008KT 10SM FEW030 28/24 A3009 RMK AO2 SLP188 T02830239
Observed
Feb-18 @ 18:53 UTC
Wind
  • 130° at 8 KTS
Visibility
10 SM
Flight Rules
VFR
Cloud Levels
  • Few at 3,000' AGL
Temperature
28°C / 82°F
Dewpoint
24°C / 75°F
Humidity
79%
Altimeter
30.09" Hg
Pressure
1018.8 hPa